createdAt,value
2018-11-03T00:04:10.195Z,8.6
2018-11-03T00:09:12.340Z,6.1
2018-11-03T00:14:14.743Z,7.9
2018-11-03T00:19:17.041Z,9.2
2018-11-03T00:24:19.327Z,10.2
2018-11-03T00:29:21.515Z,7.7
2018-11-03T00:34:23.978Z,8.5
2018-11-03T00:39:26.169Z,8.6
2018-11-03T00:44:28.504Z,8.1
2018-11-03T00:49:30.754Z,5.8
2018-11-03T00:54:33.181Z,10.2
2018-11-03T00:59:35.312Z,7.9
2018-11-03T01:04:37.626Z,7.3
2018-11-03T01:09:40.152Z,6.6
2018-11-03T01:14:42.244Z,9.7
2018-11-03T01:19:44.518Z,9.3
2018-11-03T01:24:46.737Z,6.8
2018-11-03T01:29:49.089Z,7.3
2018-11-03T01:34:51.410Z,8.7
2018-11-03T01:39:53.724Z,8.2
2018-11-03T01:44:56.019Z,7.8
2018-11-03T01:49:58.315Z,6.4
2018-11-03T01:55:00.655Z,5.3
2018-11-03T02:00:02.874Z,7.4
2018-11-03T02:05:05.186Z,10.1
2018-11-03T02:10:07.580Z,7.3
2018-11-03T02:15:09.803Z,7.8
2018-11-03T02:20:12.101Z,9.9
2018-11-03T02:25:14.312Z,9.1
2018-11-03T02:30:16.750Z,6.9
2018-11-03T02:35:18.940Z,6.6
2018-11-03T02:40:21.144Z,7.7
2018-11-03T02:45:23.581Z,10.1
2018-11-03T02:50:25.783Z,7.5
2018-11-03T02:55:28.185Z,9
2018-11-03T03:00:30.343Z,8.5
2018-11-03T03:05:32.695Z,8.4
2018-11-03T03:10:35.061Z,11.9
2018-11-03T03:15:37.317Z,7.3
2018-11-03T03:20:39.680Z,7.8
2018-11-03T03:25:41.923Z,7.7
2018-11-03T03:30:44.180Z,5.5
2018-11-03T03:35:46.474Z,11.8
2018-11-03T03:40:48.824Z,10.8
2018-11-03T03:45:51.042Z,10.1
2018-11-03T03:50:53.342Z,10.5
2018-11-03T03:55:55.708Z,8.1
2018-11-03T04:00:57.947Z,6.7
2018-11-03T04:06:00.257Z,8.8
2018-11-03T04:11:02.543Z,8.4
2018-11-03T04:16:04.955Z,8.9
2018-11-03T04:21:07.122Z,7.9
2018-11-03T04:26:09.338Z,9.4
2018-11-03T04:31:11.750Z,9.5
2018-11-03T04:36:14.203Z,8.4
2018-11-03T04:41:16.277Z,7.9
2018-11-03T04:46:18.527Z,12.2
2018-11-03T04:51:20.990Z,11.2
2018-11-03T04:56:23.116Z,12
2018-11-03T05:01:25.488Z,11.6
2018-11-03T05:06:27.818Z,9.5
2018-11-03T05:11:30.149Z,11.6
2018-11-03T05:16:32.327Z,9.6
2018-11-03T05:21:34.618Z,10.3
2018-11-03T05:26:36.916Z,12.3
2018-11-03T05:31:39.216Z,9.8
2018-11-03T05:36:41.471Z,12.5
2018-11-03T05:41:43.787Z,9
2018-11-03T05:46:46.014Z,12.7
2018-11-03T05:51:48.403Z,11.5
2018-11-03T05:56:50.715Z,15.8
2018-11-03T06:01:52.913Z,11.5
2018-11-03T06:06:55.311Z,11.9
2018-11-03T06:11:57.643Z,12.2
2018-11-03T06:16:59.826Z,15.7
2018-11-03T06:22:02.167Z,9
2018-11-03T06:27:04.498Z,9.1
2018-11-03T06:32:06.710Z,9.4
2018-11-03T06:37:09.036Z,14
2018-11-03T06:42:11.331Z,10.1
2018-11-03T06:47:13.678Z,11.8
2018-11-03T06:52:15.998Z,13.9
2018-11-03T06:57:18.262Z,15.8
2018-11-03T07:02:20.537Z,15
2018-11-03T07:07:22.790Z,12.1
2018-11-03T07:12:25.424Z,12.8
2018-11-03T07:17:27.317Z,14.1
2018-11-03T07:22:29.815Z,15
2018-11-03T07:27:32.019Z,16.1
2018-11-03T07:32:34.164Z,15.3
2018-11-03T07:37:36.572Z,16.200001
2018-11-03T07:42:38.913Z,12
2018-11-03T07:47:41.161Z,13.5
2018-11-03T07:52:43.388Z,14
2018-11-03T07:57:45.713Z,12.8
2018-11-03T08:02:48.020Z,16
2018-11-03T08:07:50.305Z,11.8
2018-11-03T08:12:52.502Z,10.9
2018-11-03T08:17:54.968Z,10.9
2018-11-03T08:22:57.390Z,12.8
2018-11-03T08:27:59.481Z,13.9
2018-11-03T08:33:01.790Z,13.3
2018-11-03T08:38:04.015Z,11
2018-11-03T08:43:06.401Z,8.6
2018-11-03T08:48:08.708Z,13
2018-11-03T08:53:10.884Z,11.4
2018-11-03T08:58:13.221Z,11
2018-11-03T09:03:15.628Z,10.7
2018-11-03T09:08:17.806Z,15.3
2018-11-03T09:13:20.139Z,17.1
2018-11-03T09:18:22.349Z,15.6
2018-11-03T09:23:24.696Z,12.5
2018-11-03T09:28:28.092Z,13.7
2018-11-03T09:33:29.335Z,12.4
2018-11-03T09:38:31.702Z,17.6
2018-11-03T09:43:33.961Z,16.200001
2018-11-03T09:48:36.227Z,12.9
2018-11-03T09:53:38.488Z,12.6
2018-11-03T09:58:40.864Z,15.7
2018-11-03T10:03:43.036Z,11.7
2018-11-03T10:08:45.257Z,12.8
2018-11-03T10:13:47.760Z,11.9
2018-11-03T10:18:49.858Z,12.8
2018-11-03T10:23:52.260Z,13.6
2018-11-03T10:28:54.684Z,9.7
2018-11-03T10:33:56.844Z,12.9
2018-11-03T10:38:59.019Z,12.9
2018-11-03T10:44:01.510Z,9.1
2018-11-03T10:49:03.750Z,11.4
2018-11-03T10:54:06.187Z,13.5
2018-11-03T10:59:08.411Z,12.4
2018-11-03T11:04:10.597Z,11
2018-11-03T11:09:12.841Z,9.7
2018-11-03T11:14:15.325Z,7.2
2018-11-03T11:19:17.468Z,8.2
2018-11-03T11:24:19.860Z,6.9
2018-11-03T11:29:22.149Z,7.8
2018-11-03T11:34:24.308Z,5.6
2018-11-03T11:39:26.596Z,5.7
2018-11-03T11:44:29.034Z,9.7
2018-11-03T11:49:31.353Z,7.6
2018-11-03T11:54:33.498Z,4.1
2018-11-03T11:59:35.798Z,4.1
2018-11-03T12:04:38.107Z,3.9
2018-11-03T12:09:40.370Z,5.1
2018-11-03T12:14:42.775Z,3.6
2018-11-03T12:19:44.935Z,3.4
2018-11-03T12:24:47.271Z,3.3
2018-11-03T12:29:49.601Z,2.6
2018-11-03T12:34:55.873Z,3.6
2018-11-03T12:39:54.152Z,2.9
2018-11-03T12:44:56.482Z,2.7
2018-11-03T12:49:58.669Z,2.4
2018-11-03T12:55:01.160Z,2.8
2018-11-03T13:00:03.334Z,2.6
2018-11-03T13:05:05.801Z,2
2018-11-03T13:10:07.940Z,2
2018-11-03T13:15:10.375Z,1.2
2018-11-03T13:20:12.538Z,1.9
2018-11-03T13:25:14.771Z,1.8
2018-11-03T13:30:17.087Z,2.2
2018-11-03T13:35:19.403Z,0.8
2018-11-03T13:40:21.714Z,1.1
2018-11-03T13:45:23.963Z,2.2
2018-11-03T13:50:26.253Z,1
2018-11-03T13:55:28.682Z,1.3
2018-11-03T14:00:30.872Z,0.6
2018-11-03T14:05:33.163Z,1.3
2018-11-03T14:10:35.380Z,1.1
2018-11-03T14:15:37.986Z,1.4
2018-11-03T14:20:39.996Z,1.2
2018-11-03T14:25:42.301Z,2.4
2018-11-03T14:30:44.724Z,1.2
2018-11-03T14:35:46.945Z,2.1
2018-11-03T14:40:49.157Z,1.9
2018-11-03T14:45:51.548Z,2.9
2018-11-03T14:50:53.845Z,4.7
2018-11-03T14:55:56.028Z,2.5
2018-11-03T15:00:58.296Z,1.7
2018-11-03T15:06:00.739Z,3.4
2018-11-03T15:11:03.278Z,2.9
2018-11-03T15:16:05.224Z,2.6
2018-11-03T15:21:07.547Z,2.1
2018-11-03T15:26:09.950Z,2.4
2018-11-03T15:31:13.134Z,2.4
2018-11-03T15:36:14.392Z,1.8
2018-11-03T15:41:16.929Z,3.3
2018-11-03T15:46:19.132Z,1.7
2018-11-03T15:51:21.258Z,2.5
2018-11-03T15:56:23.697Z,9.2
2018-11-03T16:01:25.956Z,7.9
2018-11-03T16:06:28.203Z,15.1
2018-11-03T16:11:30.491Z,6.1
2018-11-03T16:16:32.908Z,5.3
2018-11-03T16:21:35.049Z,2.8
2018-11-03T16:26:37.425Z,3.6
2018-11-03T16:31:39.760Z,2.5
2018-11-03T16:36:42.079Z,2.3
2018-11-03T16:41:44.238Z,3.1
2018-11-03T16:46:46.601Z,2.9
2018-11-03T16:51:48.948Z,2.9
2018-11-03T16:56:51.225Z,3.3
2018-11-03T17:01:53.461Z,3.9
2018-11-03T17:06:55.829Z,3.4
2018-11-03T17:11:58.102Z,3.4
2018-11-03T17:17:00.371Z,3.3
2018-11-03T17:22:02.639Z,3.4
2018-11-03T17:27:04.925Z,1.7
2018-11-03T17:32:07.326Z,2.8
2018-11-03T17:37:09.503Z,4.9
2018-11-03T17:42:11.738Z,3.3
2018-11-03T17:47:14.144Z,3.8
2018-11-03T17:52:16.391Z,5.3
2018-11-03T17:57:18.627Z,5
2018-11-03T18:02:21.042Z,4.8
2018-11-03T18:07:23.280Z,5.2
2018-11-03T18:12:25.620Z,3.9
2018-11-03T18:17:27.858Z,4.7
2018-11-03T18:22:30.118Z,4
2018-11-03T18:27:32.490Z,6.3
2018-11-03T18:32:34.777Z,4.2
2018-11-03T18:37:37.110Z,6.2
2018-11-03T18:42:39.361Z,5.9
2018-11-03T18:47:41.703Z,5.9
2018-11-03T18:52:43.934Z,6.6
2018-11-03T18:57:46.187Z,7.9
2018-11-03T19:02:48.456Z,8.9
2018-11-03T19:07:50.804Z,7.5
2018-11-03T19:12:53.183Z,6
2018-11-03T19:17:55.380Z,7.4
2018-11-03T19:22:57.784Z,8.1
2018-11-03T19:27:59.995Z,6.7
2018-11-03T19:33:02.234Z,11.7
2018-11-03T19:38:04.532Z,8.2
2018-11-03T19:43:10.128Z,6.1
2018-11-03T19:48:09.238Z,6.6
2018-11-03T19:53:11.398Z,7.8
2018-11-03T19:58:13.762Z,5.9
2018-11-03T20:03:15.969Z,7.4
2018-11-03T20:08:18.283Z,7.1
2018-11-03T20:13:20.559Z,8.4
2018-11-03T20:18:22.889Z,6.6
2018-11-03T20:23:25.206Z,7.4
2018-11-03T20:28:27.499Z,7.7
2018-11-03T20:33:29.758Z,9.2
2018-11-03T20:38:32.041Z,6.6
2018-11-03T20:43:34.311Z,6.9
2018-11-03T20:48:36.602Z,8.4
2018-11-03T20:53:38.988Z,7.4
2018-11-03T20:58:41.234Z,9.5
2018-11-03T21:03:43.578Z,12.2
2018-11-03T21:08:45.800Z,11.6
2018-11-03T21:13:48.088Z,10.1
2018-11-03T21:18:50.603Z,8.9
2018-11-03T21:23:52.822Z,10.4
2018-11-03T21:28:55.003Z,14.1
2018-11-03T21:33:57.360Z,10.5
2018-11-03T21:38:59.514Z,12
2018-11-03T21:44:01.791Z,10.3
2018-11-03T21:49:04.169Z,10.1
2018-11-03T21:54:06.455Z,11
2018-11-03T21:59:08.747Z,11.6
2018-11-03T22:04:11.007Z,16.6
2018-11-03T22:09:13.384Z,12.7
2018-11-03T22:14:15.717Z,9.4
2018-11-03T22:19:17.881Z,15.7
2018-11-03T22:24:20.185Z,11.1
2018-11-03T22:29:22.472Z,13.6
2018-11-03T22:34:24.936Z,13.1
2018-11-03T22:39:27.053Z,10.6
2018-11-03T22:44:29.334Z,12.1
2018-11-03T22:49:31.732Z,11.6
2018-11-03T22:54:33.983Z,13
2018-11-03T22:59:36.266Z,11.1
2018-11-03T23:04:38.672Z,12.6
2018-11-03T23:09:40.910Z,14.6
2018-11-03T23:14:43.135Z,16.700001
2018-11-03T23:19:45.446Z,15.2
2018-11-03T23:24:47.815Z,16.299999
2018-11-03T23:29:50.417Z,16.6
2018-11-03T23:34:52.407Z,17.6
2018-11-03T23:39:54.714Z,16.299999
2018-11-03T23:44:57.052Z,15.2
2018-11-03T23:49:59.242Z,16
2018-11-03T23:55:01.547Z,16.700001
